Wetterdaten: aktuell Mittwoch, 04.10.2017 23:55
Datum Zeit Temp. A. Feuchte A. Luftdruck Niederschlag Wind Richtung Richtung Sonnenschein ET Solar Taupunkt Windben
04.10.2017 23:55 11.1 C 89 % 1023.5 hPa 0.0 l/m 0.2 km/h (0 Bft) W 259 0 min 0.000 mm 0 W/m 9.4 C 1.6 km/h (1 Bft)
04.10.2017 22:55 11.5 C 90 % 1024.2 hPa 0.0 l/m 5.8 km/h (2 Bft) W 259 0 min 0.000 mm 0 W/m 9.9 C 11.3 km/h (2 Bft)
04.10.2017 21:55 11.2 C 91 % 1024.2 hPa 0.0 l/m 4.2 km/h (1 Bft) W 277 0 min 0.000 mm 0 W/m 9.8 C 6.4 km/h (2 Bft)
04.10.2017 20:55 11.5 C 91 % 1024.0 hPa 0.0 l/m 4.0 km/h (1 Bft) W 269 0 min 0.000 mm 0 W/m 10.1 C 6.4 km/h (2 Bft)
04.10.2017 19:55 12.3 C 89 % 1023.8 hPa 0.0 l/m 0.0 km/h (0 Bft) NO 55 0 min 0.025 mm 0 W/m 10.5 C 0.0 km/h (0 Bft)
04.10.2017 18:55 13.8 C 82 % 1023.3 hPa 0.0 l/m 0.0 km/h (0 Bft) NO 55 0 min 0.076 mm 0 W/m 10.8 C 0.0 km/h (0 Bft)
04.10.2017 17:55 15.3 C 76 % 1023.3 hPa 0.0 l/m 1.8 km/h (1 Bft) O-NO 57 0 min 0.178 mm 79 W/m 11.1 C 3.2 km/h (1 Bft)
04.10.2017 16:55 15.8 C 75 % 1023.5 hPa 0.0 l/m 8.1 km/h (2 Bft) O 80 15 min 0.152 mm 301 W/m 11.4 C 12.9 km/h (3 Bft)
04.10.2017 15:55 15.7 C 74 % 1023.7 hPa 0.0 l/m 1.0 km/h (0 Bft) N-NO 28 4 min 0.178 mm 199 W/m 11.1 C 4.8 km/h (1 Bft)
04.10.2017 14:55 16.1 C 73 % 1024.0 hPa 0.0 l/m 0.0 km/h (0 Bft) S 169 41 min 0.229 mm 316 W/m 11.3 C 0.0 km/h (0 Bft)
04.10.2017 13:55 15.9 C 77 % 1024.6 hPa 0.0 l/m 5.2 km/h (1 Bft) N 9 57 min 0.254 mm 295 W/m 11.9 C 8.0 km/h (2 Bft)
04.10.2017 12:55 15.2 C 76 % 1025.4 hPa 0.0 l/m 1.7 km/h (1 Bft) S-SW 209 47 min 0.228 mm 229 W/m 11.0 C 3.2 km/h (1 Bft)
04.10.2017 11:55 14.2 C 78 % 1025.7 hPa 0.0 l/m 1.6 km/h (1 Bft) S-SW 201 48 min 0.102 mm 476 W/m 10.4 C 3.2 km/h (1 Bft)
04.10.2017 10:55 12.4 C 84 % 1026.2 hPa 0.0 l/m 0.0 km/h (0 Bft) S-SW 195 5 min 0.076 mm 241 W/m 9.8 C 0.0 km/h (0 Bft)
04.10.2017 09:55 10.9 C 91 % 1025.7 hPa 0.0 l/m 0.0 km/h (0 Bft) W-NW 283 0 min 0.051 mm 244 W/m 9.5 C 0.0 km/h (0 Bft)
04.10.2017 08:55 9.3 C 93 % 1025.8 hPa 0.0 l/m 0.0 km/h (0 Bft) N-NO 12 0 min 0.000 mm 125 W/m 8.2 C 0.0 km/h (0 Bft)
04.10.2017 07:55 7.2 C 93 % 1025.6 hPa 0.0 l/m 0.0 km/h (0 Bft) N-NO 15 0 min 0.000 mm 25 W/m 6.1 C 0.0 km/h (0 Bft)
04.10.2017 06:55 7.2 C 92 % 1025.1 hPa 0.0 l/m 0.0 km/h (0 Bft) W 281 0 min 0.000 mm 0 W/m 6.0 C 0.0 km/h (0 Bft)
04.10.2017 05:55 7.3 C 92 % 1025.3 hPa 0.0 l/m 0.0 km/h (0 Bft) NO 55 0 min 0.000 mm 0 W/m 6.1 C 0.0 km/h (0 Bft)
04.10.2017 04:55 7.8 C 91 % 1025.4 hPa 0.0 l/m 0.0 km/h (0 Bft) NO 50 0 min 0.000 mm 0 W/m 6.4 C 0.0 km/h (0 Bft)
04.10.2017 03:54 8.3 C 91 % 1025.3 hPa 0.0 l/m 0.0 km/h (0 Bft) O 94 0 min 0.000 mm 0 W/m 6.9 C 0.0 km/h (0 Bft)
04.10.2017 02:54 8.8 C 90 % 1025.8 hPa 0.0 l/m 0.0 km/h (0 Bft) O 94 0 min 0.000 mm 0 W/m 7.3 C 0.0 km/h (0 Bft)
04.10.2017 01:54 9.7 C 87 % 1025.7 hPa 0.0 l/m 0.0 km/h (0 Bft) O 90 0 min 0.000 mm 0 W/m 7.6 C 0.0 km/h (0 Bft)
04.10.2017 00:54 10.8 C 85 % 1025.8 hPa 0.0 l/m 0.0 km/h (0 Bft) O 90 0 min 0.000 mm 0 W/m 8.4 C 0.0 km/h (0 Bft)
04.10.2017 00:00 11.8 C 84 % 1025.7 hPa 0.0 l/m 1.1 km/h (1 Bft) O-SO 119 0 min 0.000 mm 0 W/m 9.2 C 3.2 km/h (1 Bft)
_ Min-Zeit 07:22 14:47 18:38 - 00:03 - - - - - 06:57 00:03
Minimum _ 7.0 C 72 % 1023.1 hPa - 0.0 km/h (0 Bft) - - - - - 5.9 C 0.0 km/h (0 Bft)
_ Max-Zeit 15:06 08:41 10:53 00:00 13:06 - - 10:44 13:01 12:13 13:57 13:10
Maximum _ 16.4 C 94 % 1026.3 hPa 0.0 l/m 12.1 km/h
NO (2 Bft)
- - 1 min 0.254 mm 768 W/m 12.1 C 16.1 km/h
NO (3 Bft)
Durchschnitt _ 11.7 C 85 % 1024.8 hPa #0.0 l/m 1.8 km/h (1 Bft) W - #3:37 h #1.549 mm 248 W/m 9.2 C 2.9 km/h (1 Bft)
www.rheintalmeteo.ch